Αναφορές Αεροδρομίων

 

KSJC - San Jose, California, USA
Distance from station: ΒΑ 14km
Ενημερώθηκε: 24/07/2021 10:53
Αίθριος
Αίθριος
 Ανεμος από ΒΔ
Ανεμος: ΒΔ 6 km/h
Θερμοκρασία: 16°C
Σημείο Δρόσου: 13°C
Υγρασία: 83%
Βαρόμετρο: 1015.9 hPa
Clouds: Αίθριος
Visibility: 16 km
2021/07/24 07:53 KSJC 240753Z AUTO 31003KT 10SM CLR 16/13 A3000 RMK AO2 SLP157 T01610128 402830128
KNUQ - Moffett Nas/Mtn, California, USA
Distance from station: Β 14km
Ενημερώθηκε: 24/07/2021 11:15
Συννεφιά
Συννεφιά
 Ανεμος από calm
Ανεμος: Απνοια
Θερμοκρασία: 16°C
Σημείο Δρόσου: 14°C
Υγρασία: 88%
Βαρόμετρο: 1015.9 hPa
Clouds: Συννεφιά
Visibility: 14 km
Cloud details: Συννεφιά 213 m
2021/07/24 08:15 KNUQ 240815Z AUTO 00000KT 9SM OVC007 16/14 A3000 RMK AO2
 
KPAO - Palo Alto, California, USA
Distance from station: ΒΒΔ 23km
Ενημερώθηκε: 24/07/2021 06:47
NOT Current
Αίθριος
Αίθριος
 Ανεμος από ΒΒΔ
Ανεμος: ΒΒΔ 17 km/h
Θερμοκρασία: 17°C
Σημείο Δρόσου: 14°C
Υγρασία: 83%
Βαρόμετρο: 1015.9 hPa
Clouds: Αίθριος
Visibility: 16 km
2021/07/24 03:47 KPAO 240347Z 34009KT 10SM SKC 17/14 A3000 RMK LAST
KRHV - San Jose/Reid, California, USA
Distance from station: ΑΒΑ 19km
Ενημερώθηκε: 24/07/2021 07:47
NOT Current
Αίθριος
Αίθριος
 Ανεμος από Δ
Ανεμος: Δ 7 km/h
Θερμοκρασία: 20°C
Σημείο Δρόσου: 12°C
Υγρασία: 60%
Βαρόμετρο: 1016.6 hPa
Clouds: Αίθριος
Visibility: 16 km
2021/07/24 04:47 KRHV 240447Z 27004KT 10SM SKC 20/12 A3002 RMK LAST
 
KOAK - Oakland, California, USA
Distance from station: ΒΒΔ 50km
Ενημερώθηκε: 24/07/2021 10:53
Few Clouds
Few Clouds
 Ανεμος από ΒΔ
Ανεμος: ΒΔ 19 km/h
Θερμοκρασία: 13°C
Σημείο Δρόσου: 12°C
Υγρασία: 94%
Βαρόμετρο: 1016.3 hPa
Clouds: Few Clouds
Visibility: 16 km
Cloud details: Few Clouds 152 m
2021/07/24 07:53 KOAK 240753Z 32010KT 10SM FEW005 13/12 A3001 RMK AO2 SLP160 T01280117 402280106
KSQL - San Carlos Airpo, California, USA
Distance from station: ΒΔ 34km
Ενημερώθηκε: 24/07/2021 11:15
Αίθριος
Αίθριος
 Ανεμος από calm
Ανεμος: Απνοια
Θερμοκρασία: 15°C
Σημείο Δρόσου: 12°C
Υγρασία: 82%
Βαρόμετρο: 1016.3 hPa
Clouds: Αίθριος
Visibility: 16 km
2021/07/24 08:15 KSQL 240815Z AUTO 00000KT 10SM CLR 15/12 A3001 RMK AO2
 
KSFO - San Francisco, California, USA
Distance from station: ΒΔ 49km
Ενημερώθηκε: 24/07/2021 10:56
Few Clouds
Few Clouds
 Ανεμος από ΒΔ
Ανεμος: ΒΔ 17 km/h
Θερμοκρασία: 13°C
Σημείο Δρόσου: 11°C
Υγρασία: 88%
Βαρόμετρο: 1015.9 hPa
Clouds: Few Clouds
Visibility: 16 km
Cloud details: Few Clouds 122 m
2021/07/24 07:56 KSFO 240756Z 31009KT 10SM FEW004 13/11 A3000 RMK AO2 SLP159 T01330111 402390117
KE16 - San Martin, California, USA
Distance from station: ΑΝΑ 43km
Ενημερώθηκε: 24/07/2021 11:15
Σχεδόν νεφελώδης
Σχεδόν νεφελώδης
 Ανεμος από ΑΝΑ
Ανεμος: ΑΝΑ 6 km/h
Θερμοκρασία: 12°C
Σημείο Δρόσου: 10°C
Υγρασία: 88%
Βαρόμετρο: 1017.3 hPa
Clouds: Σχεδόν νεφελώδης
Visibility: 16 km
Cloud details: Σχεδόν νεφελώδης 91 m
2021/07/24 08:15 KE16 240815Z AUTO 12003KT 10SM BKN003 12/10 A3004 RMK AO2
 
KWVI - Watsonville, California, USA
Distance from station: ΝΝΑ 44km
Ενημερώθηκε: 24/07/2021 10:53
Συννεφιά
Συννεφιά
 Ανεμος από calm
Ανεμος: Απνοια
Θερμοκρασία: 13°C
Σημείο Δρόσου: 12°C
Υγρασία: 94%
Βαρόμετρο: 1017.3 hPa
Clouds: Συννεφιά
Visibility: 11 km
Cloud details: Συννεφιά 122 m
2021/07/24 07:53 KWVI 240753Z AUTO 00000KT 7SM OVC004 13/12 A3004 RMK AO2 SLP172 T01280117 402000122
KHAF - Half Moon Bay, California, USA
Distance from station: ΔΒΔ 50km
Ενημερώθηκε: 09/07/2021 17:35
NOT Current
Ασθενής βροχή, Αίθριος
Ασθενής βροχή, Αίθριος
 
Θερμοκρασία: 13°C
Σημείο Δρόσου: 12°C
Υγρασία: 94%
Βαρόμετρο: 1012.9 hPa
Περίληψη: Ασθενής βροχή
Clouds: Αίθριος
Visibility: 6 km
2021/07/09 14:35 KHAF 091435Z AUTO 4SM -RA CLR 13/12 A2991 RMK AO2
 
KHWD - Hayward, California, USA
Distance from station: Β 44km
Ενημερώθηκε: 24/07/2021 10:54
Αίθριος
Αίθριος
 Ανεμος από ΔΒΔ
Ανεμος: ΔΒΔ 7 km/h
Θερμοκρασία: 13°C
Σημείο Δρόσου: 11°C
Υγρασία: 88%
Βαρόμετρο: 1015.9 hPa
Clouds: Αίθριος
Visibility: 16 km
2021/07/24 07:54 KHWD 240754Z 30004KT 10SM CLR 13/11 A3000 RMK AO2 SLP167 T01330111 402560122
KLVK - Livermore, California, USA
Distance from station: ΒΒΑ 51km
Ενημερώθηκε: 24/07/2021 10:53
Αίθριος
Αίθριος
 Ανεμος από ΔΒΔ
Ανεμος: ΔΒΔ 7 km/h
Θερμοκρασία: 18°C
Σημείο Δρόσου: 10°C
Υγρασία: 60%
Βαρόμετρο: 1014.9 hPa
Clouds: Αίθριος
Visibility: 16 km
2021/07/24 07:53 KLVK 240753Z AUTO 29004KT 10SM CLR 18/10 A2997 RMK AO2 SLP143 T01830100 403610122